Flight Track Log - Related Links

Times and Time Zones

All times are in EDT time to prevent confusion due to time zone crossing. See the AAL297 flight status page for this flight to view local times or setup timezone preferences in your user account.

Time Position Orientation Groundspeed Altitude Reporting Facility
EDT Latitude Longitude Course Direction KTS MPH feet Rate Location/Type
Tue 02:33:46 PM 32.8833 -97.0500 292° West 157 181 1,400  Level Dallas / Fort Worth TRACON
Tue 02:34:28 PM 32.8500 -97.0500 180° South 201 231 2,500 2,176 Climbing Dallas / Fort Worth TRACON
Tue 02:35:28 PM 32.7833 -97.0667 192° South 253 291 5,100 2,750 Climbing Dallas / Fort Worth TRACON
Tue 02:36:00 PM 32.6833 -97.2381 270° West  Level FlightAware Approximate
Tue 02:36:28 PM 32.7833 -97.1500 270° West 276 318 8,000  Level Dallas / Fort Worth TRACON
Tue 02:37:00 PM 32.7290 -97.3628 293° West  Level FlightAware Approximate
Tue 02:37:30 PM 32.7978 -97.2503 280° West 408 470 10,500  Level Fort Worth Center
Tue 02:38:00 PM 32.7742 -97.4893 292° West  Level FlightAware Approximate
Tue 02:38:30 PM 32.8125 -97.3614 279° West 360 414 12,100  Level Fort Worth Center
Tue 02:39:00 PM 32.8169 -97.6170 292° West  Level FlightAware Approximate
Tue 02:39:30 PM 32.8292 -97.4828 279° West 369 425 14,000  Level Fort Worth Center
Tue 02:40:30 PM 32.8478 -97.6136 280° West 391 450 17,300 2,900 Climbing Fort Worth Center
Tue 02:41:30 PM 32.8642 -97.7447 278° West 396 456 19,800 1,850 Climbing Fort Worth Center
Tue 02:42:30 PM 32.8658 -97.8686 271° West 410 472 21,000 1,650 Climbing Fort Worth Center
Tue 02:43:30 PM 32.8967 -98.0244 283° West 437 503 23,100 1,900 Climbing Fort Worth Center
Tue 02:44:30 PM 32.9231 -98.1508 284° West 443 510 24,800 1,633 Climbing Fort Worth Center
Tue 02:46:30 PM 32.9897 -98.4586 285° West 466 536 28,000 1,767 Climbing Fort Worth Center
Tue 02:47:30 PM 33.0258 -98.6078 286° West 466 536 30,100 1,950 Climbing Fort Worth Center
Tue 02:48:30 PM 33.0578 -98.7544 285° West 461 531 31,900 1,700 Climbing Fort Worth Center
Tue 02:49:30 PM 33.0917 -98.9011 285° West 461 531 33,500 1,550 Climbing Fort Worth Center
Tue 02:50:30 PM 33.1233 -99.0456 285° West 455 524 35,000 1,350 Climbing Fort Worth Center
Tue 02:51:30 PM 33.1547 -99.1900 285° West 455 524 36,200 1,000 Climbing Fort Worth Center
Tue 02:52:30 PM 33.1861 -99.3347 285° West 455 524 37,000 800 Climbing Fort Worth Center
Tue 02:53:30 PM 33.2169 -99.4819 284° West 455 524 37,800 500 Climbing Fort Worth Center
Tue 02:54:30 PM 33.2500 -99.6267 285° West 455 524 38,000 100 Climbing Fort Worth Center
Tue 02:55:30 PM 33.2806 -99.7789 284° West 455 524 38,000  Level Fort Worth Center
Tue 02:56:30 PM 33.3111 -99.9239 284° West 455 524 38,000  Level Fort Worth Center
Tue 02:57:30 PM 33.3436 -100.0742 285° West 455 524 38,000  Level Fort Worth Center
Tue 02:58:30 PM 33.3736 -100.2267 283° West 455 524 38,000  Level Fort Worth Center
Tue 02:59:30 PM 33.4036 -100.3744 284° West 455 524 38,000  Level Fort Worth Center
Tue 03:00:30 PM 33.4356 -100.5225 285° West 455 524 38,000  Level Fort Worth Center
Tue 03:01:30 PM 33.4653 -100.6703 284° West 455 524 38,000  Level Fort Worth Center
Tue 03:02:30 PM 33.4944 -100.8208 283° West 455 524 38,000  Level Fort Worth Center
Tue 03:03:30 PM 33.5244 -100.9492 286° West 455 524 38,000  Level Fort Worth Center
Tue 03:04:30 PM 33.5550 -101.1172 282° West 455 524 38,000  Level Fort Worth Center
Tue 03:05:30 PM 33.5822 -101.2506 284° West 455 524 38,000  Level Fort Worth Center
Tue 03:06:30 PM 33.6147 -101.4142 283° West 455 524 38,000  Level Fort Worth Center
Tue 03:07:30 PM 33.6397 -101.5475 283° West 455 524 38,000  Level Fort Worth Center
Tue 03:08:30 PM 33.6700 -101.7011 283° West 463 533 38,000  Level Fort Worth Center
Tue 03:09:30 PM 33.7003 -101.8525 284° West 469 540 38,000  Level Fort Worth Center
Tue 03:10:30 PM 33.7294 -102.0236 282° West 475 547 38,000  Level Fort Worth Center
Tue 03:11:30 PM 33.7594 -102.1728 284° West 468 539 38,000  Level Fort Worth Center
Tue 03:13:04 PM 33.8014 -102.3961 283° West 466 536 38,000  Level Albuquerque Center
Tue 03:14:05 PM 33.8303 -102.5481 283° West 468 539 38,000  Level Albuquerque Center
Tue 03:15:07 PM 33.8583 -102.6994 283° West 468 539 38,000  Level Albuquerque Center
Tue 03:16:09 PM 33.8864 -102.8511 283° West 468 539 38,000  Level Albuquerque Center
Tue 03:17:11 PM 33.9136 -103.0014 282° West 464 534 38,000  Level Albuquerque Center
Tue 03:18:13 PM 33.9475 -103.1811 283° West 461 531 38,000  Level Albuquerque Center
Tue 03:19:14 PM 33.9739 -103.3325 282° West 462 532 38,000  Level Albuquerque Center
Tue 03:20:16 PM 34.0000 -103.4872 282° West 468 539 38,000  Level Albuquerque Center
Tue 03:21:18 PM 34.0269 -103.6392 282° West 468 539 38,000  Level Albuquerque Center
Tue 03:22:20 PM 34.0564 -103.8097 282° West 465 535 38,000  Level Albuquerque Center
Tue 03:23:21 PM 34.0825 -103.9636 282° West 463 533 38,000  Level Albuquerque Center
Tue 03:24:23 PM 34.1094 -104.1161 282° West 461 531 38,000  Level Albuquerque Center
Tue 03:25:25 PM 34.1347 -104.2683 281° West 460 529 38,000  Level Albuquerque Center
Tue 03:26:27 PM 34.1608 -104.4200 282° West 456 525 38,000  Level Albuquerque Center
Tue 03:27:28 PM 34.1861 -104.5686 282° West 450 518 38,000  Level Albuquerque Center
Tue 03:28:30 PM 34.2117 -104.7167 282° West 447 514 38,000  Level Albuquerque Center
Tue 03:29:32 PM 34.2367 -104.8678 281° West 450 518 38,000  Level Albuquerque Center
Tue 03:30:33 PM 34.2647 -105.0422 281° West 449 517 38,000  Level Albuquerque Center
Tue 03:31:35 PM 34.2886 -105.1911 281° West 448 516 38,000  Level Albuquerque Center
Tue 03:32:36 PM 34.3139 -105.3386 282° West 445 512 38,000  Level Albuquerque Center
Tue 03:33:38 PM 34.3375 -105.4886 281° West 448 516 38,000  Level Albuquerque Center
Tue 03:34:40 PM 34.3614 -105.6372 281° West 447 514 38,000  Level Albuquerque Center
Tue 03:35:41 PM 34.3742 -105.7894 276° West 449 517 38,000  Level Albuquerque Center
Tue 03:36:43 PM 34.3750 -105.9419 270° West 450 518 38,000  Level Albuquerque Center
Tue 03:37:45 PM 34.3794 -106.0950 272° West 450 518 38,000  Level Albuquerque Center
Tue 03:38:46 PM 34.3825 -106.2444 271° West 451 519 38,000  Level Albuquerque Center
Tue 03:39:48 PM 34.3858 -106.3967 272° West 452 520 38,000  Level Albuquerque Center
Tue 03:40:50 PM 34.3867 -106.5497 270° West 453 521 38,000  Level Albuquerque Center
Tue 03:41:51 PM 34.3886 -106.7003 271° West 449 517 38,000  Level Albuquerque Center
Tue 03:42:53 PM 34.3897 -106.8850 270° West 454 522 38,000  Level Albuquerque Center
Tue 03:43:54 PM 34.3892 -107.0414 270° West 461 531 38,000  Level Albuquerque Center
Tue 03:44:56 PM 34.3900 -107.1944 270° West 456 525 38,000  Level Albuquerque Center
Tue 03:45:58 PM 34.3906 -107.3472 270° West 453 521 38,000  Level Albuquerque Center
Tue 03:46:59 PM 34.3908 -107.4989 270° West 451 519 38,000  Level Albuquerque Center
Tue 03:48:01 PM 34.3911 -107.6522 270° West 453 521 38,000  Level Albuquerque Center
Tue 03:49:03 PM 34.3914 -107.8039 270° West 451 519 38,000  Level Albuquerque Center
Tue 03:50:05 PM 34.3908 -107.9564 270° West 452 520 38,000  Level Albuquerque Center
Tue 03:51:06 PM 34.3903 -108.1083 270° West 451 519 38,000  Level Albuquerque Center
Tue 03:52:08 PM 34.3892 -108.2886 270° West 447 514 38,000  Level Albuquerque Center
Tue 03:53:10 PM 34.3894 -108.4397 270° West 448 516 38,000  Level Albuquerque Center
Tue 03:54:11 PM 34.3872 -108.5892 269° West 446 513 38,000  Level Albuquerque Center
Tue 03:55:13 PM 34.3861 -108.7317 269° West 442 509 38,000  Level Albuquerque Center
Tue 03:56:15 PM 34.3847 -108.8961 269° West 440 506 38,000  Level Albuquerque Center
Tue 03:57:16 PM 34.3828 -109.0364 269° West 437 503 38,000  Level Albuquerque Center
Tue 03:58:18 PM 34.3806 -109.1981 269° West 433 498 38,000  Level Albuquerque Center
Tue 03:59:20 PM 34.3789 -109.3361 269° West 430 495 38,000  Level Albuquerque Center
Tue 04:00:21 PM 34.3764 -109.5000 269° West 432 497 38,000  Level Albuquerque Center
Tue 04:01:23 PM 34.3744 -109.6392 269° West 431 496 38,000  Level Albuquerque Center
Tue 04:02:25 PM 34.3719 -109.7775 269° West 430 495 38,000  Level Albuquerque Center
Tue 04:03:27 PM 34.3683 -109.9389 268° West 429 494 38,000  Level Albuquerque Center
Tue 04:04:28 PM 34.3661 -110.0794 269° West 433 498 38,000  Level Albuquerque Center
Tue 04:05:30 PM 34.3625 -110.2419 269° West 433 498 38,000  Level Albuquerque Center
Tue 04:06:32 PM 34.3594 -110.3819 269° West 433 498 38,000  Level Albuquerque Center
Tue 04:07:34 PM 34.3572 -110.5283 269° West 444 511 38,000  Level Albuquerque Center
Tue 04:08:35 PM 34.3536 -110.6739 268° West 437 503 38,000  Level Albuquerque Center
Tue 04:09:37 PM 34.3461 -110.8192 266° West 436 502 38,000  Level Albuquerque Center
Tue 04:10:39 PM 34.3417 -110.9956 268° West 438 504 38,000  Level Albuquerque Center
Tue 04:11:41 PM 34.3369 -111.1431 268° West 440 506 38,000  Level Albuquerque Center
Tue 04:12:43 PM 34.3322 -111.2897 268° West 440 506 38,000  Level Albuquerque Center
Tue 04:13:44 PM 34.3286 -111.4350 268° West 437 503 38,000  Level Albuquerque Center
Tue 04:14:46 PM 34.3236 -111.5803 268° West 437 503 38,000  Level Albuquerque Center
Tue 04:15:48 PM 34.3394 -111.7503 276° West 428 493 38,000  Level Albuquerque Center
Tue 04:16:50 PM 34.3558 -111.8872 278° West 420 483 38,000  Level Albuquerque Center
Tue 04:17:52 PM 34.3728 -112.0256 278° West 419 482 38,000  Level Albuquerque Center
Tue 04:18:53 PM 34.3894 -112.1622 278° West 416 479 38,000  Level Albuquerque Center
Tue 04:19:55 PM 34.4069 -112.3000 279° West 417 480 38,000  Level Albuquerque Center
Tue 04:20:57 PM 34.4586 -112.4200 298° West 411 473 38,000  Level Albuquerque Center
Tue 04:21:59 PM 34.5569 -112.5092 323° Northwest 411 473 38,000  Level Albuquerque Center
Tue 04:23:01 PM 34.6414 -112.6014 318° Northwest 409 471 38,000  Level Albuquerque Center
Tue 04:24:03 PM 34.6483 -112.7664 273° West 413 475 38,000  Level Albuquerque Center
Tue 04:25:05 PM 34.6333 -112.9078 263° West 419 482 38,000  Level Albuquerque Center
Tue 04:26:06 PM 34.6200 -113.0489 263° West 421 484 38,000  Level Albuquerque Center
Tue 04:27:08 PM 34.6069 -113.1872 263° West 417 480 38,000  Level Albuquerque Center
Tue 04:28:10 PM 34.5928 -113.3286 263° West 420 483 38,000  Level Albuquerque Center
Tue 04:29:12 PM 34.5783 -113.4689 263° West 421 484 38,000  Level Albuquerque Center
Tue 04:30:14 PM 34.5644 -113.6094 263° West 421 484 38,000  Level Albuquerque Center
Tue 04:31:16 PM 34.5353 -113.7686 258° West 421 484 38,000  Level Albuquerque Center
Tue 04:32:17 PM 34.5069 -113.9075 256° West 422 486 38,000  Level Albuquerque Center
Tue 04:33:19 PM 34.4794 -114.0458 256° West 423 487 38,000  Level Albuquerque Center
Tue 04:34:22 PM 34.4500 -114.1903 256° West 418 481 38,000 -48 Level Los Angeles Center
Tue 04:35:24 PM 34.4211 -114.3275 256° West 422 486 37,900  Descending Los Angeles Center
Tue 04:36:26 PM 34.3933 -114.4639 256° West 420 483 38,000  Climbing Los Angeles Center
Tue 04:37:28 PM 34.3589 -114.6275 256° West 419 482 37,900  Descending Los Angeles Center
Tue 04:38:30 PM 34.3306 -114.7644 256° West 420 483 38,000 48 Climbing Los Angeles Center
Tue 04:39:32 PM 34.3008 -114.9000 255° West 420 483 38,000  Level Los Angeles Center
Tue 04:40:34 PM 34.2717 -115.0369 256° West 419 482 38,000  Level Los Angeles Center
Tue 04:41:37 PM 34.2428 -115.1736 256° West 422 486 38,000 -528 Level Los Angeles Center
Tue 04:42:39 PM 34.2056 -115.3392 255° West 425 489 36,900 -1,016 Descending Los Angeles Center
Tue 04:43:41 PM 34.1753 -115.4817 256° West 435 501 35,900 -968 Descending Los Angeles Center
Tue 04:44:43 PM 34.1456 -115.6231 256° West 436 502 34,900 -919 Descending Los Angeles Center
Tue 04:45:45 PM 34.1144 -115.7656 255° West 441 507 34,000 -919 Descending Los Angeles Center
Tue 04:46:47 PM 34.0911 -115.9108 259° West 443 510 33,000 -968 Descending Los Angeles Center
Tue 04:47:49 PM 34.0694 -116.0581 260° West 446 513 32,000 -1,161 Descending Los Angeles Center
Tue 04:48:51 PM 34.0428 -116.2353 260° West 449 517 30,600 -1,597 Descending Los Angeles Center
Tue 04:49:53 PM 34.0217 -116.3778 260° West 440 506 28,700 -2,112 Descending Los Angeles Center
Tue 04:50:56 PM 34.0025 -116.5172 261° West 430 495 26,200 -2,234 Descending Los Angeles Center
Tue 04:52:10 PM 33.9922 -116.6506 265° West 410 472 23,600 -2,250 Descending Los Angeles Center
Tue 04:53:12 PM 33.9803 -116.8017 265° West 388 447 21,100 -2,333 Descending Los Angeles Center
Tue 04:53:58 PM 33.9667 -116.9167 262° West 359 413 19,400 -1,811 Descending Southern California TRACON
Tue 04:54:58 PM 33.9667 -117.0333 270° West 353 406 17,900 -1,200 Descending Southern California TRACON
Tue 04:55:58 PM 33.9500 -117.1500 260° West 348 400 17,000 -1,050 Descending Southern California TRACON
Tue 04:56:58 PM 33.9333 -117.2667 260° West 320 368 15,800 -1,190 Descending Southern California TRACON
Tue 04:58:04 PM 33.9333 -117.3667 270° West 306 352 14,500 -1,289 Descending Southern California TRACON
Tue 04:58:59 PM 33.9667 -117.4667 292° West 296 341 13,200 -1,400 Descending Southern California TRACON
Tue 05:00:04 PM 34.0000 -117.5500 296° West 289 333 11,700 -1,392 Descending Southern California TRACON
Tue 05:01:04 PM 34.0000 -117.6500 270° West 306 352 10,300 -1,304 Descending Southern California TRACON
Tue 05:01:59 PM 34.0000 -117.7333 270° West 271 312 9,200 -942 Descending Southern California TRACON
Tue 05:03:05 PM 34.0000 -117.8333 270° West 261 300 8,400 -810 Descending Southern California TRACON
Tue 05:04:05 PM 33.9833 -117.9167 256° West 237 273 7,500 -1,000 Descending Southern California TRACON
Tue 05:05:05 PM 33.9833 -117.9833 270° West 237 273 6,400 -992 Descending Southern California TRACON
Tue 05:06:06 PM 33.9667 -118.0667 256° West 209 241 5,500 -885 Descending Southern California TRACON

Login

Don't have an account? Register now (free) for customized features, flight alerts, and more!